createdAt,value
2018-02-02T00:00:24.266Z,3.41
2018-02-02T00:01:24.421Z,3.44
2018-02-02T00:02:24.156Z,3.55
2018-02-02T00:03:23.889Z,3.53
2018-02-02T00:04:24.380Z,3.44
2018-02-02T00:05:24.121Z,3.41
2018-02-02T00:06:23.868Z,3.58
2018-02-02T00:07:24.372Z,3.41
2018-02-02T00:08:24.102Z,3.41
2018-02-02T00:09:24.084Z,3.25
2018-02-02T00:10:23.869Z,3.21
2018-02-02T00:11:23.812Z,3.36
2018-02-02T00:12:24.306Z,3.26
2018-02-02T00:13:23.909Z,3.23
2018-02-02T00:14:23.784Z,3.25
2018-02-02T00:15:24.023Z,3.25
2018-02-02T00:16:24.266Z,3.16
2018-02-02T00:17:24.253Z,3.21
2018-02-02T00:18:24.248Z,3.19
2018-02-02T00:19:23.999Z,3.1
2018-02-02T00:20:24.219Z,3.18
2018-02-02T00:21:23.966Z,3.14
2018-02-02T00:22:24.210Z,3.21
2018-02-02T00:23:23.945Z,3.13
2018-02-02T00:24:24.197Z,3.11
2018-02-02T00:25:23.924Z,3.05
2018-02-02T00:26:23.948Z,3.13
2018-02-02T00:27:23.903Z,3
2018-02-02T00:28:23.646Z,2.97
2018-02-02T00:29:24.141Z,2.97
2018-02-02T00:30:23.957Z,2.83
2018-02-02T00:31:24.142Z,2.86
2018-02-02T00:32:23.864Z,2.85
2018-02-02T00:33:23.847Z,2.9
2018-02-02T00:34:23.595Z,2.9
2018-02-02T00:35:24.126Z,2.89
2018-02-02T00:36:24.075Z,2.87
2018-02-02T00:37:24.071Z,2.85
2018-02-02T00:38:23.793Z,2.68
2018-02-02T00:39:23.783Z,2.69
2018-02-02T00:40:23.528Z,2.69
2018-02-02T00:41:23.768Z,2.69
2018-02-02T00:42:23.774Z,2.62
2018-02-02T00:43:23.744Z,2.65
2018-02-02T00:44:23.738Z,2.71
2018-02-02T00:45:23.751Z,2.77
2018-02-02T00:46:23.716Z,2.71
2018-02-02T00:47:23.706Z,2.75
2018-02-02T00:48:23.693Z,2.65
2018-02-02T00:49:23.937Z,2.62
2018-02-02T00:50:23.677Z,2.64
2018-02-02T00:51:23.663Z,2.67
2018-02-02T00:52:23.922Z,2.6
2018-02-02T00:53:23.648Z,2.5
2018-02-02T00:54:23.635Z,2.54
2018-02-02T00:55:23.633Z,2.42
2018-02-02T00:56:23.874Z,2.47
2018-02-02T00:57:23.861Z,2.51
2018-02-02T00:58:23.601Z,2.51
2018-02-02T00:59:23.890Z,2.6
2018-02-02T01:00:23.569Z,2.56
2018-02-02T01:01:23.559Z,2.61
2018-02-02T01:02:23.553Z,2.64
2018-02-02T01:03:23.545Z,2.62
2018-02-02T01:04:23.555Z,2.62
2018-02-02T01:05:23.520Z,2.6
2018-02-02T01:06:23.517Z,2.6
2018-02-02T01:07:23.516Z,2.49
2018-02-02T01:08:23.493Z,2.53
2018-02-02T01:09:23.731Z,2.6
2018-02-02T01:10:23.778Z,2.5
2018-02-02T01:11:23.711Z,2.39
2018-02-02T01:12:23.697Z,2.39
2018-02-02T01:13:23.458Z,2.39
2018-02-02T01:14:23.492Z,2.33
2018-02-02T01:15:23.683Z,2.25
2018-02-02T01:16:23.676Z,2.39
2018-02-02T01:17:23.398Z,2.36
2018-02-02T01:18:23.637Z,2.39
2018-02-02T01:19:23.383Z,2.33
2018-02-02T01:20:23.401Z,2.33
2018-02-02T01:21:23.357Z,2.32
2018-02-02T01:22:23.636Z,2.35
2018-02-02T01:23:23.342Z,2.38
2018-02-02T01:24:23.329Z,2.28
2018-02-02T01:25:23.607Z,2.38
2018-02-02T01:26:23.050Z,2.42
2018-02-02T01:27:23.559Z,2.42
2018-02-02T01:28:23.035Z,2.38
2018-02-02T01:29:23.274Z,2.33
2018-02-02T01:30:23.274Z,2.28
2018-02-02T01:31:23.257Z,2.28
2018-02-02T01:32:23.253Z,2.25
2018-02-02T01:33:23.499Z,2.32
2018-02-02T01:34:23.477Z,2.26
2018-02-02T01:35:23.463Z,2.31
2018-02-02T01:36:23.203Z,2.42
2018-02-02T01:37:23.201Z,2.28
2018-02-02T01:38:23.172Z,2.32
2018-02-02T01:39:23.215Z,2.35
2018-02-02T01:40:23.215Z,2.39
2018-02-02T01:41:23.219Z,2.39
2018-02-02T01:42:23.133Z,2.32
2018-02-02T01:43:23.373Z,2.33
2018-02-02T01:44:23.368Z,2.42
2018-02-02T01:45:23.413Z,2.26
2018-02-02T01:46:23.096Z,2.24
2018-02-02T01:47:23.080Z,2.2
2018-02-02T01:48:23.361Z,2.24
2018-02-02T01:49:23.060Z,2.24
2018-02-02T01:50:23.050Z,2.31
2018-02-02T01:51:22.846Z,2.29
2018-02-02T01:52:23.030Z,2.26
2018-02-02T01:53:23.026Z,2.17
2018-02-02T01:54:23.269Z,2.31
2018-02-02T01:55:23.316Z,2.24
2018-02-02T01:56:22.994Z,2.22
2018-02-02T01:57:23.239Z,2.26
2018-02-02T01:58:23.230Z,2.25
2018-02-02T01:59:23.215Z,2.13
2018-02-02T02:00:22.948Z,2.15
2018-02-02T02:01:22.934Z,2.22
2018-02-02T02:02:22.923Z,2.22
2018-02-02T02:03:23.164Z,2.32
2018-02-02T02:04:22.920Z,2.31
2018-02-02T02:05:23.181Z,2.31
2018-02-02T02:06:23.136Z,2.38
2018-02-02T02:07:22.644Z,2.31
2018-02-02T02:08:23.112Z,2.32
2018-02-02T02:09:23.102Z,2.33
2018-02-02T02:10:23.177Z,2.35
2018-02-02T02:11:23.123Z,2.42
2018-02-02T02:12:22.822Z,2.33
2018-02-02T02:13:22.810Z,2.39
2018-02-02T02:14:23.068Z,2.33
2018-02-02T02:15:23.121Z,2.33
2018-02-02T02:16:22.778Z,2.33
2018-02-02T02:17:22.768Z,2.42
2018-02-02T02:18:22.756Z,2.36
2018-02-02T02:19:23.016Z,2.42
2018-02-02T02:20:22.735Z,2.42
2018-02-02T02:21:23.034Z,2.43
2018-02-02T02:22:22.975Z,2.39
2018-02-02T02:23:22.458Z,2.46
2018-02-02T02:24:22.944Z,2.31
2018-02-02T02:25:22.936Z,2.33
2018-02-02T02:26:22.928Z,2.39
2018-02-02T02:27:22.668Z,2.29
2018-02-02T02:28:22.904Z,2.42
2018-02-02T02:29:22.903Z,2.44
2018-02-02T02:30:22.631Z,2.26
2018-02-02T02:31:22.638Z,2.33
2018-02-02T02:32:22.616Z,2.43
2018-02-02T02:33:22.600Z,2.42
2018-02-02T02:34:22.590Z,2.33
2018-02-02T02:35:23.094Z,2.39
2018-02-02T02:36:22.828Z,2.47
2018-02-02T02:37:22.812Z,2.38
2018-02-02T02:38:22.626Z,2.51
2018-02-02T02:39:22.561Z,2.39
2018-02-02T02:40:22.902Z,2.42
2018-02-02T02:41:22.851Z,2.33
2018-02-02T02:42:22.510Z,2.39
2018-02-02T02:43:22.753Z,2.38
2018-02-02T02:44:22.737Z,2.26
2018-02-02T02:45:22.748Z,2.29
2018-02-02T02:46:22.721Z,2.22
2018-02-02T02:47:22.724Z,2.32
2018-02-02T02:48:22.469Z,2.26
2018-02-02T02:49:22.684Z,2.26
2018-02-02T02:50:22.681Z,2.28
2018-02-02T02:51:22.676Z,2.33
2018-02-02T02:52:22.678Z,2.33
2018-02-02T02:53:22.660Z,2.39
2018-02-02T02:54:22.406Z,2.42
2018-02-02T02:55:22.635Z,2.53
2018-02-02T02:56:22.614Z,2.54
2018-02-02T02:57:22.639Z,2.54
2018-02-02T02:58:22.349Z,2.51
2018-02-02T02:59:22.350Z,2.64
2018-02-02T03:00:22.322Z,2.69
2018-02-02T03:01:22.310Z,2.69
2018-02-02T03:02:22.552Z,2.67
2018-02-02T03:03:22.544Z,2.67
2018-02-02T03:04:22.539Z,2.6
2018-02-02T03:05:22.611Z,2.6
2018-02-02T03:06:22.509Z,2.56
2018-02-02T03:07:22.502Z,2.65
2018-02-02T03:08:22.246Z,2.6
2018-02-02T03:09:22.481Z,2.57
2018-02-02T03:10:22.551Z,2.53
2018-02-02T03:11:22.482Z,2.53
2018-02-02T03:12:22.456Z,2.56
2018-02-02T03:13:22.464Z,2.69
2018-02-02T03:14:22.178Z,2.62
2018-02-02T03:15:22.174Z,2.8
2018-02-02T03:16:22.424Z,2.72
2018-02-02T03:17:22.410Z,2.74
2018-02-02T03:18:22.157Z,2.71
2018-02-02T03:19:21.870Z,2.79
2018-02-02T03:20:22.403Z,2.67
2018-02-02T03:21:22.355Z,2.64
2018-02-02T03:22:22.097Z,2.6
2018-02-02T03:23:22.347Z,2.57
2018-02-02T03:24:22.325Z,2.56
2018-02-02T03:25:22.320Z,2.64
2018-02-02T03:26:22.047Z,2.56
2018-02-02T03:27:22.297Z,2.6
2018-02-02T03:28:22.040Z,2.54
2018-02-02T03:29:22.289Z,2.6
2018-02-02T03:30:22.036Z,2.57
2018-02-02T03:31:22.039Z,2.57
2018-02-02T03:32:22.248Z,2.64
2018-02-02T03:33:22.230Z,2.67
2018-02-02T03:34:21.971Z,2.71
2018-02-02T03:35:22.262Z,2.6
2018-02-02T03:36:21.948Z,2.54
2018-02-02T03:37:21.935Z,2.51
2018-02-02T03:38:21.924Z,2.53
2018-02-02T03:39:22.178Z,2.5
2018-02-02T03:40:22.245Z,2.42
2018-02-02T03:41:21.902Z,2.28
2018-02-02T03:42:22.141Z,2.36
2018-02-02T03:43:22.134Z,2.28
2018-02-02T03:44:21.862Z,2.2
2018-02-02T03:45:21.600Z,2.14
2018-02-02T03:46:21.841Z,2.15
2018-02-02T03:47:22.087Z,2.18
2018-02-02T03:48:21.824Z,2.17
2018-02-02T03:49:21.812Z,2.17
2018-02-02T03:50:22.051Z,2.14
2018-02-02T03:51:21.808Z,2.15
2018-02-02T03:52:21.529Z,2.15
2018-02-02T03:53:22.032Z,2.18
2018-02-02T03:54:21.767Z,2.25
2018-02-02T03:55:21.765Z,2.24
2018-02-02T03:56:21.759Z,2.13
2018-02-02T03:57:21.724Z,2.08
2018-02-02T03:58:21.466Z,2.06
2018-02-02T03:59:21.706Z,2.07
2018-02-02T04:00:21.691Z,2.02
2018-02-02T04:01:21.446Z,1.99
2018-02-02T04:02:21.697Z,2.02
2018-02-02T04:03:21.915Z,2.06
2018-02-02T04:04:21.649Z,1.95
2018-02-02T04:05:21.895Z,1.92
2018-02-02T04:06:21.878Z,1.95
2018-02-02T04:07:21.627Z,2.04
2018-02-02T04:08:21.856Z,2.02
2018-02-02T04:09:21.854Z,1.95
2018-02-02T04:10:21.654Z,2.06
2018-02-02T04:11:21.579Z,2.04
2018-02-02T04:12:21.570Z,1.95
2018-02-02T04:13:21.565Z,1.89
2018-02-02T04:14:21.795Z,1.85
2018-02-02T04:15:21.531Z,1.73
2018-02-02T04:16:21.522Z,1.8
2018-02-02T04:17:21.507Z,1.77
2018-02-02T04:18:21.749Z,1.73
2018-02-02T04:19:21.749Z,1.7
2018-02-02T04:20:21.729Z,1.66
2018-02-02T04:21:21.465Z,1.7
2018-02-02T04:22:21.203Z,1.74
2018-02-02T04:23:21.708Z,1.74
2018-02-02T04:24:21.692Z,1.76
2018-02-02T04:25:21.736Z,1.74
2018-02-02T04:26:21.669Z,1.77
2018-02-02T04:27:21.400Z,1.81
2018-02-02T04:28:21.400Z,1.68
2018-02-02T04:29:21.386Z,1.76
2018-02-02T04:30:21.122Z,1.91
2018-02-02T04:31:21.362Z,1.95
2018-02-02T04:32:21.352Z,1.97
2018-02-02T04:33:21.601Z,1.92
2018-02-02T04:34:21.335Z,2
2018-02-02T04:35:21.082Z,2
2018-02-02T04:36:21.560Z,1.94
2018-02-02T04:37:21.600Z,1.89
2018-02-02T04:38:21.532Z,1.94
2018-02-02T04:39:21.278Z,1.89
2018-02-02T04:40:21.275Z,1.85
2018-02-02T04:41:21.509Z,1.84
2018-02-02T04:42:21.250Z,1.91
2018-02-02T04:43:21.476Z,2.07
2018-02-02T04:44:21.475Z,1.99
2018-02-02T04:45:20.954Z,1.95
2018-02-02T04:46:21.201Z,2.08
2018-02-02T04:47:21.436Z,2.02
2018-02-02T04:48:21.513Z,2.06
2018-02-02T04:49:20.912Z,2.06
2018-02-02T04:50:21.147Z,2
2018-02-02T04:51:21.391Z,2.02
2018-02-02T04:52:21.384Z,2.1
2018-02-02T04:53:21.381Z,2.04
2018-02-02T04:54:21.103Z,2.11
2018-02-02T04:55:21.097Z,2.11
2018-02-02T04:56:20.831Z,2.07
2018-02-02T04:57:21.332Z,1.97
2018-02-02T04:58:21.324Z,2.06
2018-02-02T04:59:21.305Z,2.11
2018-02-02T05:00:21.295Z,2.06
2018-02-02T05:01:21.029Z,2.08
2018-02-02T05:02:21.274Z,2.1
2018-02-02T05:03:21.269Z,2.02
2018-02-02T05:04:21.250Z,2.08
2018-02-02T05:05:21.238Z,1.94
2018-02-02T05:06:20.975Z,2.02
2018-02-02T05:07:20.968Z,1.87
2018-02-02T05:08:20.953Z,1.89
2018-02-02T05:09:20.940Z,1.91
2018-02-02T05:10:21.183Z,1.88
2018-02-02T05:11:20.930Z,1.87
2018-02-02T05:12:20.916Z,2
2018-02-02T05:13:20.898Z,1.91
2018-02-02T05:14:20.884Z,1.85
2018-02-02T05:15:21.146Z,1.88
2018-02-02T05:16:21.119Z,1.89
2018-02-02T05:17:20.927Z,2.02
2018-02-02T05:18:20.846Z,1.91
2018-02-02T05:19:21.093Z,1.89
2018-02-02T05:20:21.095Z,2.02
2018-02-02T05:21:20.821Z,1.95
2018-02-02T05:22:20.554Z,1.97
2018-02-02T05:23:20.790Z,2.06
2018-02-02T05:24:20.776Z,2.08
2018-02-02T05:25:20.972Z,2.04
2018-02-02T05:26:21.010Z,2.02
2018-02-02T05:27:21.005Z,1.99
2018-02-02T05:28:20.757Z,2
2018-02-02T05:29:20.976Z,1.94
2018-02-02T05:30:20.720Z,1.92
2018-02-02T05:31:20.448Z,2
2018-02-02T05:32:20.694Z,1.87
2018-02-02T05:33:20.940Z,1.95
2018-02-02T05:34:20.416Z,1.88
2018-02-02T05:35:21.225Z,1.85
2018-02-02T05:36:20.898Z,1.94
2018-02-02T05:37:20.885Z,2
2018-02-02T05:38:20.629Z,1.85
2018-02-02T05:39:20.872Z,1.88
2018-02-02T05:40:20.864Z,1.89
2018-02-02T05:41:20.595Z,2.02
2018-02-02T05:42:20.832Z,2.06
2018-02-02T05:43:20.578Z,2.11
2018-02-02T05:44:20.562Z,2.17
2018-02-02T05:45:20.556Z,2.17
2018-02-02T05:46:20.788Z,2.13
2018-02-02T05:47:20.770Z,2.1
2018-02-02T05:48:20.767Z,2.17
2018-02-02T05:49:20.765Z,2.15
2018-02-02T05:50:20.747Z,2.13
2018-02-02T05:51:20.731Z,2.18
2018-02-02T05:52:20.713Z,2.17
2018-02-02T05:53:20.453Z,2.2
2018-02-02T05:54:20.701Z,2.24
2018-02-02T05:55:20.702Z,2.14
2018-02-02T05:56:20.683Z,2.11
2018-02-02T05:57:20.408Z,2.17
2018-02-02T05:58:20.654Z,2.22
2018-02-02T05:59:20.161Z,2.08
2018-02-02T06:00:20.749Z,2.13
2018-02-02T06:01:20.365Z,2.14
2018-02-02T06:02:20.353Z,2.08
2018-02-02T06:03:20.344Z,2.1
2018-02-02T06:04:20.334Z,2.14
2018-02-02T06:05:20.412Z,2.15
2018-02-02T06:06:20.306Z,2.1
2018-02-02T06:07:20.546Z,2.14
2018-02-02T06:08:20.643Z,2.13
2018-02-02T06:09:20.526Z,2.13
2018-02-02T06:10:20.431Z,2.1
2018-02-02T06:11:20.510Z,2.07
2018-02-02T06:12:20.497Z,2.17
2018-02-02T06:13:20.482Z,2.22
2018-02-02T06:14:20.224Z,2.15
2018-02-02T06:23:22.955Z,2.13
2018-02-02T06:24:22.952Z,2
2018-02-02T06:25:23.141Z,2.06
2018-02-02T06:26:22.935Z,2.08
2018-02-02T06:27:22.916Z,1.91
2018-02-02T06:28:22.629Z,1.94
2018-02-02T06:29:22.375Z,2.06
2018-02-02T06:30:22.625Z,1.94
2018-02-02T06:31:22.863Z,1.87
2018-02-02T06:32:22.332Z,1.88
2018-02-02T06:33:22.577Z,1.77
2018-02-02T06:34:22.875Z,1.78
2018-02-02T06:35:22.557Z,1.84
2018-02-02T06:36:22.556Z,1.84
2018-02-02T06:37:22.785Z,1.88
2018-02-02T06:38:22.514Z,1.88
2018-02-02T06:39:22.520Z,1.99
2018-02-02T06:40:22.737Z,2
2018-02-02T06:41:22.226Z,1.92
2018-02-02T06:42:22.716Z,1.91
2018-02-02T06:43:22.448Z,1.88
2018-02-02T06:44:22.188Z,1.92
2018-02-02T06:45:22.426Z,1.85
2018-02-02T06:46:22.410Z,1.73
2018-02-02T06:47:22.651Z,1.74
2018-02-02T06:48:22.635Z,1.81
2018-02-02T06:49:22.623Z,1.73
2018-02-02T06:50:22.380Z,1.73
2018-02-02T06:51:22.630Z,1.76
2018-02-02T06:52:22.334Z,1.76
2018-02-02T06:53:22.093Z,1.71
2018-02-02T06:54:22.581Z,1.74
2018-02-02T06:55:22.655Z,1.68
2018-02-02T06:56:22.293Z,1.84
2018-02-02T06:57:22.538Z,1.81
2018-02-02T06:58:22.272Z,1.92
2018-02-02T06:59:22.516Z,1.95
2018-02-02T07:00:22.611Z,1.97
2018-02-02T07:01:22.235Z,1.94
2018-02-02T07:02:22.225Z,1.85
2018-02-02T07:03:22.213Z,1.95
2018-02-02T07:04:22.193Z,1.92
2018-02-02T07:05:22.183Z,2.04
2018-02-02T07:06:22.425Z,2.07
2018-02-02T07:07:22.426Z,2.08
2018-02-02T07:08:22.407Z,2.1
2018-02-02T07:09:22.389Z,2.08
2018-02-02T07:10:21.873Z,2.13
2018-02-02T07:11:22.114Z,2.08
2018-02-02T07:12:22.353Z,2.06
2018-02-02T07:13:22.090Z,2.07
2018-02-02T07:14:22.329Z,2.06
2018-02-02T07:15:22.320Z,2.14
2018-02-02T07:16:22.055Z,2.07
2018-02-02T07:17:22.298Z,2.13
2018-02-02T07:18:22.033Z,2.1
2018-02-02T07:19:22.271Z,2.29
2018-02-02T07:20:21.763Z,2.22
2018-02-02T07:21:21.999Z,2.24
2018-02-02T07:22:22.239Z,2.25
2018-02-02T07:23:21.994Z,2.42
2018-02-02T07:24:21.973Z,2.44
2018-02-02T07:25:21.962Z,2.51
2018-02-02T07:26:22.190Z,2.74
2018-02-02T07:27:21.937Z,2.71
2018-02-02T07:28:21.680Z,2.68
2018-02-02T07:29:21.928Z,2.75
2018-02-02T07:30:21.907Z,2.67
2018-02-02T07:31:22.138Z,2.72
2018-02-02T07:32:21.888Z,2.74
2018-02-02T07:33:21.630Z,2.6
2018-02-02T07:34:21.868Z,2.75
2018-02-02T07:35:22.103Z,2.74
2018-02-02T07:36:22.101Z,2.71
2018-02-02T07:37:21.580Z,2.71
2018-02-02T07:38:21.846Z,2.69
2018-02-02T07:39:21.808Z,2.72
2018-02-02T07:40:21.873Z,2.75
2018-02-02T07:41:22.054Z,2.72
2018-02-02T07:42:21.526Z,2.82
2018-02-02T07:43:21.517Z,2.67
2018-02-02T07:44:21.547Z,2.69
2018-02-02T07:45:22.169Z,2.75
2018-02-02T07:46:21.998Z,2.72
2018-02-02T07:47:21.979Z,2.79
2018-02-02T07:48:21.721Z,2.8
2018-02-02T07:49:21.953Z,2.79
2018-02-02T07:50:21.450Z,2.75
2018-02-02T07:51:21.430Z,2.92
2018-02-02T07:52:21.672Z,2.87
2018-02-02T07:53:21.916Z,3
2018-02-02T07:54:21.655Z,3
2018-02-02T07:55:21.641Z,2.95
2018-02-02T07:56:21.645Z,3.04
2018-02-02T07:57:21.883Z,2.95
2018-02-02T07:58:21.614Z,3.04
2018-02-02T07:59:21.859Z,3.1
2018-02-02T08:00:21.541Z,3.05
2018-02-02T08:01:21.583Z,3.08
2018-02-02T08:02:21.832Z,3.11
2018-02-02T08:03:21.565Z,3.1
2018-02-02T08:04:21.809Z,3.14
2018-02-02T08:05:21.806Z,3.07
2018-02-02T08:06:21.546Z,3.11
2018-02-02T08:07:21.525Z,3.11
2018-02-02T08:08:21.520Z,3.11
2018-02-02T08:09:21.512Z,3.08
2018-02-02T08:10:21.748Z,3.13
2018-02-02T08:11:21.747Z,3.11
2018-02-02T08:12:21.730Z,3.21
2018-02-02T08:13:21.749Z,3.22
2018-02-02T08:14:21.709Z,3.26
2018-02-02T08:15:21.722Z,3.26
2018-02-02T08:16:21.450Z,3.28
2018-02-02T08:17:21.442Z,3.4
2018-02-02T08:18:21.688Z,3.36
2018-02-02T08:19:21.430Z,3.41
2018-02-02T08:20:21.154Z,3.44
2018-02-02T08:21:21.649Z,3.37
2018-02-02T08:22:21.387Z,3.42
2018-02-02T08:23:21.634Z,3.44
2018-02-02T08:24:21.395Z,3.45
2018-02-02T08:25:21.124Z,3.48
2018-02-02T08:26:21.348Z,3.51
2018-02-02T08:27:21.584Z,3.56
2018-02-02T08:28:21.579Z,3.59
2018-02-02T08:29:21.315Z,3.65
2018-02-02T08:30:21.330Z,3.59
2018-02-02T08:31:21.563Z,3.63
2018-02-02T08:32:21.041Z,3.65
2018-02-02T08:33:21.537Z,3.73
2018-02-02T08:34:21.533Z,3.78
2018-02-02T08:35:21.523Z,3.8
2018-02-02T08:36:21.533Z,3.73
2018-02-02T08:37:21.248Z,3.74
2018-02-02T08:38:21.505Z,3.83
2018-02-02T08:39:21.224Z,3.68
2018-02-02T08:40:21.219Z,3.66
2018-02-02T08:41:21.471Z,3.73
2018-02-02T08:42:21.453Z,3.76
2018-02-02T08:43:20.955Z,3.74
2018-02-02T08:44:21.445Z,3.73
2018-02-02T08:45:21.195Z,3.83
2018-02-02T08:46:21.177Z,3.91
2018-02-02T08:47:21.160Z,3.95
2018-02-02T08:48:21.158Z,4.01
2018-02-02T08:49:21.150Z,4.05
2018-02-02T08:50:20.879Z,4.12
2018-02-02T08:51:21.120Z,4.13
2018-02-02T08:52:20.864Z,4.19
2018-02-02T08:53:20.852Z,4.23
2018-02-02T08:54:21.432Z,4.32
2018-02-02T08:55:21.094Z,4.42
2018-02-02T08:56:21.074Z,4.5
2018-02-02T08:57:21.072Z,4.48
2018-02-02T08:58:21.326Z,4.6
2018-02-02T08:59:21.050Z,4.58
2018-02-02T09:00:21.310Z,4.73
2018-02-02T09:01:21.035Z,4.8
2018-02-02T09:02:21.039Z,4.82
2018-02-02T09:03:21.020Z,4.9
2018-02-02T09:04:22.069Z,4.75
2018-02-02T09:05:21.253Z,4.93
2018-02-02T09:06:21.010Z,5.04
2018-02-02T09:07:20.735Z,5.12
2018-02-02T09:08:21.236Z,5.2
2018-02-02T09:09:21.281Z,5.28
2018-02-02T09:10:20.995Z,5.26
2018-02-02T09:11:20.961Z,5.26
2018-02-02T09:12:20.956Z,5.38
2018-02-02T09:13:21.191Z,5.46
2018-02-02T09:14:20.939Z,5.56
2018-02-02T09:15:21.226Z,5.54
2018-02-02T09:16:20.921Z,5.56
2018-02-02T09:17:21.179Z,5.47
2018-02-02T09:18:21.156Z,5.47
2018-02-02T09:19:20.905Z,5.43
2018-02-02T09:20:20.919Z,5.54
2018-02-02T09:21:20.881Z,5.5
2018-02-02T09:22:20.879Z,5.56
2018-02-02T09:23:20.902Z,5.47
2018-02-02T09:24:21.223Z,5.51
2018-02-02T09:25:20.852Z,5.44
2018-02-02T09:26:20.859Z,5.47
2018-02-02T09:27:20.840Z,5.38
2018-02-02T09:28:20.845Z,5.48
2018-02-02T09:29:21.094Z,5.41
2018-02-02T09:30:21.073Z,5.39
2018-02-02T09:31:20.565Z,5.29
2018-02-02T09:32:21.058Z,5.28
2018-02-02T09:33:20.801Z,5.28
2018-02-02T09:34:21.048Z,5.26
2018-02-02T09:35:20.783Z,5.15
2018-02-02T09:36:20.773Z,5.11
2018-02-02T09:37:21.029Z,5.25
2018-02-02T09:38:20.519Z,5.21
2018-02-02T09:39:21.011Z,5.29
2018-02-02T09:40:21.186Z,5.28
2018-02-02T09:41:20.734Z,5.32
2018-02-02T09:42:20.727Z,5.43
2018-02-02T09:43:20.473Z,5.44
2018-02-02T09:44:20.971Z,5.38
2018-02-02T09:45:20.859Z,5.32
2018-02-02T09:46:20.954Z,5.33
2018-02-02T09:47:20.944Z,5.3
2018-02-02T09:48:20.694Z,5.35
2018-02-02T09:49:20.684Z,5.28
2018-02-02T09:50:20.926Z,5.36
2018-02-02T09:51:20.913Z,5.32
2018-02-02T09:52:20.447Z,5.41
2018-02-02T09:53:20.394Z,5.36
2018-02-02T09:54:20.646Z,5.36
2018-02-02T09:55:20.642Z,5.28
2018-02-02T09:56:20.898Z,5.25
2018-02-02T09:57:20.618Z,5.23
2018-02-02T09:58:20.614Z,5.41
2018-02-02T09:59:20.349Z,5.41
2018-02-02T10:00:21.093Z,5.56
2018-02-02T10:01:20.594Z,5.54
2018-02-02T10:02:20.585Z,5.56
2018-02-02T10:03:20.833Z,5.64
2018-02-02T10:04:20.315Z,5.73
2018-02-02T10:05:20.646Z,5.68
2018-02-02T10:06:20.305Z,5.71
2018-02-02T10:07:20.803Z,5.66
2018-02-02T10:08:20.545Z,5.64
2018-02-02T10:09:20.549Z,5.59
2018-02-02T10:10:20.784Z,5.53
2018-02-02T10:11:20.516Z,5.56
2018-02-02T10:12:20.259Z,5.56
2018-02-02T10:13:20.504Z,5.39
2018-02-02T10:14:20.257Z,5.5
2018-02-02T10:15:20.680Z,5.51
2018-02-02T10:16:20.235Z,5.48
2018-02-02T10:17:20.494Z,5.47
2018-02-02T10:18:20.728Z,5.54
2018-02-02T10:19:20.470Z,5.59
2018-02-02T10:20:20.913Z,5.56
2018-02-02T10:21:20.708Z,5.68
2018-02-02T10:22:20.450Z,5.64
2018-02-02T10:23:20.448Z,5.82
2018-02-02T10:52:59.873Z,5.72
2018-02-02T10:54:00.120Z,5.68
2018-02-02T10:55:00.105Z,5.71
2018-02-02T10:56:00.091Z,5.72
2018-02-02T10:56:59.821Z,5.65
2018-02-02T10:57:59.563Z,5.69
2018-02-02T10:59:00.054Z,5.66
2018-02-02T11:00:00.062Z,5.76
2018-02-02T11:00:59.777Z,5.82
2018-02-02T11:02:00.040Z,5.82
2018-02-02T11:03:00.012Z,5.91
2018-02-02T11:03:59.751Z,5.99
2018-02-02T11:05:00.002Z,5.99
2018-02-02T11:06:00.012Z,5.98
2018-02-02T11:06:59.979Z,6.05
2018-02-02T11:07:59.972Z,6.12
2018-02-02T11:08:59.706Z,6.14
2018-02-02T11:09:59.980Z,6.09
2018-02-02T11:10:59.766Z,6.24
2018-02-02T11:11:59.686Z,6.22
2018-02-02T11:12:59.969Z,6.28
2018-02-02T11:13:59.975Z,6.28
2018-02-02T11:14:59.914Z,6.24
2018-02-02T11:15:59.663Z,6.26
2018-02-02T11:16:59.894Z,6.28
2018-02-02T11:17:59.893Z,6.28
2018-02-02T11:18:59.626Z,6.27
2018-02-02T11:19:59.368Z,6.36
2018-02-02T11:20:59.616Z,6.38
2018-02-02T11:21:59.857Z,6.41
2018-02-02T11:22:59.853Z,6.22
2018-02-02T11:23:59.355Z,6.24
2018-02-02T11:24:59.592Z,6.35
2018-02-02T11:25:59.827Z,6.36
2018-02-02T11:26:59.856Z,6.31
2018-02-02T11:27:59.847Z,6.19
2018-02-02T11:28:59.599Z,6.2
2018-02-02T11:29:59.548Z,6.12
2018-02-02T11:30:59.606Z,6.12
2018-02-02T11:31:59.545Z,6.12
2018-02-02T11:32:59.802Z,6.09
2018-02-02T11:33:59.529Z,6.14
2018-02-02T11:34:59.516Z,6.19
2018-02-02T11:35:59.792Z,6.14
2018-02-02T11:36:59.255Z,6.12
2018-02-02T11:37:59.497Z,6.12
2018-02-02T11:38:59.540Z,6.07
2018-02-02T11:39:59.491Z,5.99
2018-02-02T11:40:59.221Z,6.01
2018-02-02T11:41:59.783Z,6.07
2018-02-02T11:42:59.466Z,6.08
2018-02-02T11:43:59.718Z,6.08
2018-02-02T11:44:59.455Z,6.12
2018-02-02T11:45:59.768Z,6.09
2018-02-02T11:46:59.459Z,6.01
2018-02-02T11:47:59.430Z,5.99
2018-02-02T11:48:59.169Z,5.99
2018-02-02T11:49:59.415Z,5.98
2018-02-02T11:50:59.657Z,6.01
2018-02-02T11:51:59.654Z,5.98
2018-02-02T11:52:59.650Z,5.98
2018-02-02T11:53:59.638Z,6.07
2018-02-02T11:54:59.136Z,6.09
2018-02-02T11:55:59.378Z,6.12
2018-02-02T11:56:59.618Z,6.24
2018-02-02T11:57:59.391Z,6.31
2018-02-02T11:58:59.099Z,6.33
2018-02-02T11:59:59.623Z,6.41
2018-02-02T12:00:59.340Z,6.49
2018-02-02T12:01:59.586Z,6.48
2018-02-02T12:02:59.334Z,6.46
2018-02-02T12:03:59.581Z,6.45
2018-02-02T12:04:59.571Z,6.38
2018-02-02T12:05:59.309Z,6.49
2018-02-02T12:06:59.557Z,6.51
2018-02-02T12:07:59.807Z,6.54
2018-02-02T12:08:59.284Z,6.6
2018-02-02T12:09:59.026Z,6.75
2018-02-02T12:10:59.274Z,6.78
2018-02-02T12:11:59.319Z,6.82
2018-02-02T12:12:59.517Z,6.81
2018-02-02T12:13:59.253Z,6.72
2018-02-02T12:14:59.254Z,6.64
2018-02-02T12:15:59.496Z,6.72
2018-02-02T12:16:58.996Z,6.78
2018-02-02T12:17:59.225Z,6.77
2018-02-02T12:18:59.222Z,6.74
2018-02-02T12:19:59.227Z,6.72
2018-02-02T12:20:59.460Z,6.87
2018-02-02T12:21:59.224Z,6.88
2018-02-02T12:22:59.472Z,6.77
2018-02-02T12:23:59.191Z,6.85
2018-02-02T12:24:59.433Z,6.72
2018-02-02T12:25:59.438Z,6.72
2018-02-02T12:26:59.431Z,6.72
2018-02-02T12:27:59.174Z,6.64
2018-02-02T12:28:59.416Z,6.63
2018-02-02T12:29:59.150Z,6.6
2018-02-02T12:30:59.148Z,6.66
2018-02-02T12:31:58.897Z,6.54
2018-02-02T12:32:59.399Z,6.57
2018-02-02T12:33:59.382Z,6.56
2018-02-02T12:34:59.435Z,6.59
2018-02-02T12:35:59.369Z,6.52
2018-02-02T12:36:59.116Z,6.6
2018-02-02T12:37:59.366Z,6.51
2018-02-02T12:38:59.097Z,6.49
2018-02-02T12:39:59.356Z,6.52
2018-02-02T12:40:59.088Z,6.56
2018-02-02T12:41:59.332Z,6.48
2018-02-02T12:42:59.109Z,6.45
2018-02-02T12:43:59.062Z,6.44
2018-02-02T12:44:59.060Z,6.45
2018-02-02T12:45:59.307Z,6.46
2018-02-02T12:46:59.081Z,6.44
2018-02-02T12:47:59.049Z,6.44
2018-02-02T12:48:59.291Z,6.51
2018-02-02T12:49:58.790Z,6.49
2018-02-02T12:50:59.028Z,6.52
2018-02-02T12:51:59.022Z,6.56
2018-02-02T12:52:59.300Z,6.62
2018-02-02T12:53:58.760Z,6.66
2018-02-02T12:54:59.300Z,6.56
2018-02-02T12:55:59.250Z,6.56
2018-02-02T12:56:58.986Z,6.59
2018-02-02T12:57:59.236Z,6.63
2018-02-02T12:58:58.980Z,6.7
2018-02-02T12:59:59.026Z,6.78
2018-02-02T13:00:58.729Z,6.82
2018-02-02T13:01:58.776Z,6.89
2018-02-02T13:02:59.199Z,6.78
2018-02-02T13:03:59.187Z,6.82
2018-02-02T13:04:59.178Z,6.88
2018-02-02T13:05:59.188Z,6.88
2018-02-02T13:06:59.182Z,6.99
2018-02-02T13:07:59.272Z,6.97
2018-02-02T13:08:58.944Z,7.03
2018-02-02T13:09:59.169Z,7.06
2018-02-02T13:10:58.917Z,7.18
2018-02-02T13:11:58.915Z,7.14
2018-02-02T13:12:58.646Z,7.21
2018-02-02T13:13:58.887Z,7.23
2018-02-02T13:14:59.123Z,7.32
2018-02-02T13:15:58.920Z,7.39
2018-02-02T13:16:59.133Z,7.38
2018-02-02T13:17:58.865Z,7.48
2018-02-02T13:18:59.111Z,7.58
2018-02-02T13:19:59.111Z,7.58
2018-02-02T13:20:58.840Z,7.54
2018-02-02T13:21:58.832Z,7.54
2018-02-02T13:22:58.845Z,7.54
2018-02-02T13:23:59.081Z,7.56
2018-02-02T13:24:59.079Z,7.35
2018-02-02T13:25:58.828Z,7.32
2018-02-02T13:26:58.831Z,7.31
2018-02-02T13:27:58.831Z,7.15
2018-02-02T13:28:58.796Z,7.07
2018-02-02T13:29:58.844Z,6.88
2018-02-02T13:30:58.802Z,6.87
2018-02-02T13:31:58.548Z,6.72
2018-02-02T13:32:58.764Z,6.7
2018-02-02T13:33:58.780Z,6.75
2018-02-02T13:34:58.507Z,6.7
2018-02-02T13:35:59.016Z,6.85
2018-02-02T13:36:58.754Z,6.78
2018-02-02T13:37:58.750Z,6.87
2018-02-02T13:38:59.003Z,6.84
2018-02-02T13:39:58.993Z,6.84
2018-02-02T13:40:58.726Z,6.78
2018-02-02T13:41:59.000Z,6.72
2018-02-02T13:42:58.704Z,6.74
2018-02-02T13:43:58.967Z,6.77
2018-02-02T13:44:58.968Z,6.69
2018-02-02T13:45:58.431Z,6.72
2018-02-02T13:46:58.948Z,6.67
2018-02-02T13:47:58.962Z,6.57
2018-02-02T13:48:58.694Z,6.6
2018-02-02T13:49:58.661Z,6.66
2018-02-02T13:50:58.922Z,6.64
2018-02-02T13:51:58.406Z,6.7
2018-02-02T13:52:58.388Z,6.67
2018-02-02T13:53:58.673Z,6.75
2018-02-02T13:54:58.632Z,6.72
2018-02-02T13:55:58.910Z,6.78
2018-02-02T13:56:58.644Z,6.72
2018-02-02T13:57:58.877Z,6.81